Coober Pedy, Australia

12:16 PM ACDT on December 03, 2016 (GMT +1030)
Coober Pedy | | Change Station

Elev 663 ft 29.00 °S, 134.76 °E | Updated 10 seconds ago

Clear
Clear
98.6 °F
Feels Like 94 °F
N
1.8
Wind Variable Wind from NNE
Gusts 7.4 mph

Today
High -- | Low -- °F
--% Chance of Precip.
Yesterday
High -- | Low -- °F
Precip. -- in
Pressure 29.86 in
Visibility 6.2 miles
Clouds
Heat Index 94 °F
Dew Point 37 °F
Humidity 12%
Rainfall 0.00 in
Snow Depth Not available.
6:24 AM 8:17 PM
Waxing Crescent, 11% visible
METAR YCBP 030100Z AUTO 05009KT 9999 // NCD 34/07 Q1011
Pressure 29.86 in
Visibility 6.2 miles
Clouds
Heat Index 94 °F
Dew Point 37 °F
Humidity 12%
Rainfall 0.00 in
Snow Depth Not available.
6:24 AM 8:17 PM
Waxing Crescent, 11% visible
METAR YCBP 030100Z AUTO 05009KT 9999 // NCD 34/07 Q1011

10-Day Weather Forecast

×

Almanac

Astronomy

Dec. 03, 2016 Rise Set
Actual Time
Civil Twilight
Nautical Twilight
Astronomical Twilight
Moon
Length of Visible Light
Length of Day
Tomorrow will be .
, % of the Moon is Illuminated

Today's Extremes

Country Highs Country Lows

Community

WunderPhotos

Upload Photos

1,955,392 photos uploaded!

WunderBlog® & News

Nearby

Air Quality

  Air Quality AQ Index Pollutant
Not available.

Snow Depth

Station Depth Elevation

Earthquake Activity

City Distance Mag. Time & Date
Minimum magnitude displayed is 2.5.

Coastal Water Temperatures

Place Temperature

Stations

Nearby Weather Stations

Station Location Temp. Windchill Dew Point Humidity Wind Precip. Elev Updated Type